Main page
METAR-TAF:

METAR-TAF

Airports :

Mwanza Airport

Mwanza, Tanzania

latitude: 02-28S, longitude: 032-55E, elevation: 1139 m

Current weather observation

The report was made 14 hours and 39 minutes ago, at 12:00 UTC
Wind 15 kt from the North/Northwest
Temperature 28°C
Humidity 51%
Pressure 1016 hPa
Visibility 10 km or more
Few clouds at a height of 2700 ft
Few clouds at a height of 2800 ft, Cumulonimbus.

METAR: HTMW 191200Z 33015KT 9999 FEW027 FEW028CB 28/17 Q1016 NOSIG

Time: 05:39 (02:39 UTC)

Forecast

The report was made 15 hours and 39 minutes ago, at 11:00 UTC
Forecast valid from 19 at 12 UTC to 20 at 12 UTC
Wind 10 kt from the North/Northwest
Visibility 10 km or more
Few clouds at a height of 2600 ft
Few clouds at a height of 2700 ft, Cumulonimbus.
Becoming
from 19 at 17 UTC to 19 at 18 UTC
Wind kt from the North

TAF: HTMW 191100Z 1912/2012 33010KT 9999 FEW026 FEW027CB BECMG 1917/1918 00000KT

Weather observations and forecasts of more than 4000 airports (METAR and TAF reports).

The available stations are represented by yellow and red dots on the map.

Hover mouse over dot to see the name of the station.

Then click to see weather observations and forecasts.

To change the map : click on the green buttons with a black cross to zoom in, on the green button with a dash to zoom out, or on the green arrows for adjacent maps.


METAR-TAF: